Manaia — FGG5735 — position and weather

sailwx.info

Track history (hours):
 
Tides and Currents Weather Stations Pressure Air Temp Water Temp Dewpoint Dewpoint Depression Visibility Wind Speed Wind Dir Waves Ship Positions

Manaia

Last reported at 2018-Apr-21 13:30 UTC. Time now 2018-Apr-21 13:46 UTC.
Position N 47°31' W 002°58'.

Length 11 m.

Type: Sailing vessel. MMSI: 227028470.

Date/timePositionNaut miles runAvg speedWind from/ knotsBaromVisibWave heightAir tempDewpointWater temp
2018-Apr-21 13:30N 47°31' W 002°58'2 3.4
2018-Apr-21 13:00N 47°32' W 002°56'4 7.2
2018-Apr-21 12:30N 47°35' W 002°52'3 5.8
2018-Apr-21 12:00N 47°37' W 002°49'1 2.8
2018-Apr-21 11:29N 47°37' W 002°47'2 4.2
2018-Apr-21 11:00N 47°39' W 002°45'0 0.2
2018-Apr-21 10:30N 47°39' W 002°45'0 0.0
2018-Apr-21 10:00N 47°39' W 002°45'0 0.0
2018-Apr-21 09:30N 47°39' W 002°45'0 0.0
2018-Apr-21 09:00N 47°39' W 002°45'0 1.0
2018-Apr-21 08:30N 47°39' W 002°46'2 4.2
2018-Apr-21 08:00N 47°37' W 002°48'3 5.3
2018-Apr-21 07:30N 47°36' W 002°51'0 0.6
2018-Apr-21 06:55N 47°36' W 002°51'0 0.0
2018-Apr-21 06:22N 47°36' W 002°51'0 0.0
2018-Apr-21 05:55N 47°36' W 002°51'0 0.0
2018-Apr-21 05:25N 47°36' W 002°51'0 0.0
2018-Apr-21 04:58N 47°36' W 002°51'0 0.0
2018-Apr-21 04:25N 47°36' W 002°51'0 0.0
2018-Apr-21 03:58N 47°36' W 002°51'0 0.0
2018-Apr-21 03:25N 47°36' W 002°51'0 0.0
2018-Apr-21 02:55N 47°36' W 002°51'0 0.0
2018-Apr-21 02:25N 47°36' W 002°51'0 0.0
2018-Apr-21 01:55N 47°36' W 002°51'0 0.0
2018-Apr-21 01:25N 47°36' W 002°51'0 0.0
2018-Apr-21 00:58N 47°36' W 002°51'0 0.0
2018-Apr-21 00:28N 47°36' W 002°51'0 0.0
2018-Apr-20 23:58N 47°36' W 002°51'0 0.0
2018-Apr-20 23:25N 47°36' W 002°51'0 0.0
2018-Apr-20 22:58N 47°36' W 002°51'0 0.0
2018-Apr-20 22:25N 47°36' W 002°51'0 0.0
2018-Apr-20 21:58N 47°36' W 002°51'0 0.0
2018-Apr-20 21:28N 47°36' W 002°51'0 0.0
2018-Apr-20 20:58N 47°36' W 002°51'0 0.0
2018-Apr-20 20:28N 47°36' W 002°51'0 0.0
2018-Apr-20 19:58N 47°36' W 002°51'0 0.0
2018-Apr-20 19:28N 47°36' W 002°51'0 0.0
2018-Apr-20 18:58N 47°36' W 002°51'0 0.0
2018-Apr-20 18:28N 47°36' W 002°51'0 0.0
2018-Apr-20 17:58N 47°36' W 002°51'0 0.0
2018-Apr-20 17:28N 47°36' W 002°51'0 0.0
2018-Apr-20 16:58N 47°36' W 002°51'0 0.0
2018-Apr-20 16:28N 47°36' W 002°51'0 0.0
2018-Apr-20 15:58N 47°36' W 002°51'0 0.8
2018-Apr-20 15:30N 47°36' W 002°52'1 2.7
2018-Apr-20 15:00N 47°35' W 002°53'1 2.9
2018-Apr-20 14:30N 47°34' W 002°55'2 4.5
2018-Apr-20 14:00N 47°32' W 002°56'3 5.2
2018-Apr-20 13:30N 47°29' W 002°56'2 4.0
2018-Apr-20 13:00N 47°27' W 002°57'2 3.8
2018-Apr-20 12:30N 47°25' W 002°57'1 3.0
2018-Apr-20 12:00N 47°24' W 002°58'0 0.1
2018-Apr-20 11:29N 47°24' W 002°58'0 0.0
2018-Apr-20 10:59N 47°24' W 002°58'0 0.0
2018-Apr-20 10:29N 47°24' W 002°58'0 0.0
2018-Apr-20 09:56N 47°24' W 002°58'0 0.0
2018-Apr-20 09:29N 47°24' W 002°58'1 2.8
2018-Apr-20 09:00N 47°24' W 002°60'2 3.4
2018-Apr-20 08:30N 47°23' W 003°01'2 4.7
2018-Apr-20 08:00N 47°22' W 003°05'3 5.1
2018-Apr-20 07:29N 47°21' W 003°08'1 0.1
2018-Apr-19 16:59N 47°21' W 003°09'2 4.3
2018-Apr-19 16:30N 47°20' W 003°06'3 5.0
2018-Apr-19 15:58N 47°20' W 003°02'4 5.2
2018-Apr-19 15:16N 47°19' W 002°57'2 5.5
2018-Apr-19 14:58N 47°19' W 002°55'2 3.4
2018-Apr-19 14:30N 47°19' W 002°52'1 2.2
2018-Apr-19 14:00N 47°20' W 002°51'1 1.9
2018-Apr-19 13:29N 47°20' W 002°52'0 0.0
2018-Apr-19 12:57N 47°20' W 002°52'0 0.0
2018-Apr-19 12:24N 47°20' W 002°52'0 0.0
2018-Apr-19 11:48N 47°20' W 002°52'0 0.0
2018-Apr-19 11:24N 47°20' W 002°52'0 0.0
2018-Apr-19 10:54N 47°20' W 002°52'0 0.3
2018-Apr-19 10:02N 47°20' W 002°51'0 5.2
2018-Apr-19 09:57N 47°21' W 002°51'2 5.2
2018-Apr-19 09:29N 47°21' W 002°47'2 4.1
2018-Apr-19 08:56N 47°22' W 002°44'2 4.5
2018-Apr-19 08:27N 47°23' W 002°41'3 5.1
2018-Apr-19 07:56N 47°23' W 002°37'2 3.2
2018-Apr-19 07:26N 47°23' W 002°35'1 1.3
2018-Apr-19 06:19N 47°23' W 002°33'0 0.0
2018-Apr-19 04:57N 47°23' W 002°33'0 0.0
2018-Apr-19 03:56N 47°23' W 002°33'0 0.0
2018-Apr-19 03:15N 47°23' W 002°33'0 0.0
2018-Apr-19 03:00N 47°23' W 002°33'0 0.0
2018-Apr-19 01:56N 47°23' W 002°33'0 0.0
2018-Apr-19 01:14N 47°23' W 002°33'0 0.0
2018-Apr-18 23:05N 47°23' W 002°33'0 0.0
2018-Apr-18 22:59N 47°23' W 002°33'0 0.0
2018-Apr-18 22:25N 47°23' W 002°33'0 0.0
2018-Apr-18 21:44N 47°23' W 002°33'0 0.0
2018-Apr-18 21:29N 47°23' W 002°33'0 0.0
2018-Apr-18 20:56N 47°23' W 002°33'0 0.0
2018-Apr-18 20:29N 47°23' W 002°33'0 0.0
2018-Apr-18 19:56N 47°23' W 002°33'0 0.0
2018-Apr-18 18:55N 47°23' W 002°33'0 0.0
2018-Apr-18 18:22N 47°23' W 002°33'0 0.0
2018-Apr-18 17:58N 47°23' W 002°33'0 0.0
2018-Apr-18 17:28N 47°23' W 002°33'0 0.0
2018-Apr-18 16:44N 47°23' W 002°33'0 0.0
2018-Apr-18 16:29N 47°23' W 002°33'0 0.0
2018-Apr-18 15:59N 47°23' W 002°33'0 0.0
2018-Apr-18 15:02N 47°23' W 002°33'0 0.0
2018-Apr-18 14:59N 47°23' W 002°33'0 0.0
2018-Apr-18 14:23N 47°23' W 002°33'1 1.4
2018-Apr-18 13:59N 47°23' W 002°32'0 0.0
2018-Apr-18 13:29N 47°23' W 002°32'0 0.0
2018-Apr-18 12:59N 47°23' W 002°32'0 0.0
2018-Apr-18 12:21N 47°23' W 002°32'0 1.0
2018-Apr-18 11:59N 47°24' W 002°33'2 4.1
2018-Apr-18 11:28N 47°23' W 002°35'24 6.0
2018-Apr-18 07:29N 47°02' W 002°18'0 0.3
2018-Apr-18 06:40N 47°02' W 002°18'0 0.0
2018-Apr-18 06:19N 47°02' W 002°18'0 0.0
2018-Apr-18 05:58N 47°02' W 002°18'0 0.0
2018-Apr-18 05:13N 47°02' W 002°18'0 0.0
2018-Apr-18 04:58N 47°02' W 002°18'0 0.0
2018-Apr-17 23:40N 47°02' W 002°18'0 0.0
2018-Apr-17 23:28N 47°02' W 002°18'0 0.0
2018-Apr-17 22:58N 47°02' W 002°18'0 0.0
2018-Apr-17 22:16N 47°02' W 002°18'0 0.0
2018-Apr-17 21:58N 47°02' W 002°18'0 0.0
2018-Apr-17 21:22N 47°02' W 002°18'0 0.0
2018-Apr-17 20:49N 47°02' W 002°18'0 0.0
2018-Apr-17 20:28N 47°02' W 002°18'0 0.0
2018-Apr-17 19:58N 47°02' W 002°18'0 0.0
2018-Apr-17 19:25N 47°02' W 002°18'0 0.0
2018-Apr-17 18:58N 47°02' W 002°18'0 0.0
2018-Apr-17 18:25N 47°02' W 002°18'25 2.0
2018-Apr-17 06:22N 46°41' W 001°57'1 0.4
2018-Apr-17 04:21N 46°42' W 001°56'0 0.0
2018-Apr-17 03:57N 46°42' W 001°56'0 0.0
2018-Apr-17 03:08N 46°42' W 001°56'0 0.0
2018-Apr-17 02:57N 46°42' W 001°56'0 0.0
2018-Apr-17 02:26N 46°42' W 001°56'0 0.0
2018-Apr-17 01:56N 46°42' W 001°56'55 1.2
2018-Apr-15 06:00N 47°21' W 002°52'0 0.0
2018-Apr-15 05:03N 47°21' W 002°52'0 0.0
2018-Apr-15 04:51N 47°21' W 002°52'0 0.0
2018-Apr-15 04:24N 47°21' W 002°52'0 0.0
2018-Apr-15 04:00N 47°21' W 002°52'0 0.0
2018-Apr-15 03:30N 47°21' W 002°52'0 0.0
2018-Apr-15 02:57N 47°21' W 002°52'0 0.0
2018-Apr-15 02:21N 47°21' W 002°52'0 0.0
2018-Apr-15 01:57N 47°21' W 002°52'0 0.0
2018-Apr-15 01:30N 47°21' W 002°52'0 0.0
2018-Apr-15 01:00N 47°21' W 002°52'0 0.0
2018-Apr-15 00:28N 47°21' W 002°52'0 0.0
2018-Apr-14 23:58N 47°21' W 002°52'0 0.0
2018-Apr-14 23:19N 47°21' W 002°52'0 0.0
2018-Apr-14 22:46N 47°21' W 002°52'0 0.0
2018-Apr-14 22:22N 47°21' W 002°52'0 0.0
2018-Apr-14 21:55N 47°21' W 002°52'0 0.0
2018-Apr-14 21:19N 47°21' W 002°52'0 0.0
2018-Apr-14 20:49N 47°21' W 002°52'0 0.0
2018-Apr-14 20:25N 47°21' W 002°52'0 0.0
2018-Apr-14 19:55N 47°21' W 002°52'0 0.0
2018-Apr-14 19:25N 47°21' W 002°52'0 0.0
2018-Apr-14 18:55N 47°21' W 002°52'0 0.0
2018-Apr-14 18:26N 47°21' W 002°52'0 0.0
2018-Apr-14 17:56N 47°21' W 002°52'1 1.5
2018-Apr-14 17:28N 47°21' W 002°53'3 6.1
2018-Apr-14 16:59N 47°24' W 002°54'2 5.0
2018-Apr-14 16:30N 47°26' W 002°55'3 5.9
2018-Apr-14 16:00N 47°29' W 002°57'3 6.3
2018-Apr-14 15:30N 47°32' W 002°59'3 5.3
2018-Apr-14 15:00N 47°34' W 003°01'1 0.2
2018-Apr-14 08:47N 47°35' W 003°02'0 0.0
2018-Apr-14 08:30N 47°35' W 003°02'0 0.2
2018-Apr-14 07:56N 47°35' W 003°02'  
Track history (hours):
 
Tides and Currents Weather Stations Pressure Air Temp Water Temp Dewpoint Dewpoint Depression Visibility Wind Speed Wind Dir Waves Ship Positions

Manaia

Last reported at 2018-Apr-21 13:30 UTC. Time now 2018-Apr-21 13:46 UTC.
Position N 47°31' W 002°58'.

Length 11 m.

Type: Sailing vessel. MMSI: 227028470.

Date/timePositionNaut miles runAvg speedWind from/ knotsBaromVisibWave heightAir tempDewpointWater temp
2018-Apr-21 13:30N 47°31' W 002°58'2 3.4
2018-Apr-21 13:00N 47°32' W 002°56'4 7.2
2018-Apr-21 12:30N 47°35' W 002°52'3 5.8
2018-Apr-21 12:00N 47°37' W 002°49'1 2.8
2018-Apr-21 11:29N 47°37' W 002°47'2 4.2
2018-Apr-21 11:00N 47°39' W 002°45'0 0.2
2018-Apr-21 10:30N 47°39' W 002°45'0 0.0
2018-Apr-21 10:00N 47°39' W 002°45'0 0.0
2018-Apr-21 09:30N 47°39' W 002°45'0 0.0
2018-Apr-21 09:00N 47°39' W 002°45'0 1.0
2018-Apr-21 08:30N 47°39' W 002°46'2 4.2
2018-Apr-21 08:00N 47°37' W 002°48'3 5.3
2018-Apr-21 07:30N 47°36' W 002°51'0 0.6
2018-Apr-21 06:55N 47°36' W 002°51'0 0.0
2018-Apr-21 06:22N 47°36' W 002°51'0 0.0
2018-Apr-21 05:55N 47°36' W 002°51'0 0.0
2018-Apr-21 05:25N 47°36' W 002°51'0 0.0
2018-Apr-21 04:58N 47°36' W 002°51'0 0.0
2018-Apr-21 04:25N 47°36' W 002°51'0 0.0
2018-Apr-21 03:58N 47°36' W 002°51'0 0.0
2018-Apr-21 03:25N 47°36' W 002°51'0 0.0
2018-Apr-21 02:55N 47°36' W 002°51'0 0.0
2018-Apr-21 02:25N 47°36' W 002°51'0 0.0
2018-Apr-21 01:55N 47°36' W 002°51'0 0.0
2018-Apr-21 01:25N 47°36' W 002°51'0 0.0
2018-Apr-21 00:58N 47°36' W 002°51'0 0.0
2018-Apr-21 00:28N 47°36' W 002°51'0 0.0
2018-Apr-20 23:58N 47°36' W 002°51'0 0.0
2018-Apr-20 23:25N 47°36' W 002°51'0 0.0
2018-Apr-20 22:58N 47°36' W 002°51'0 0.0
2018-Apr-20 22:25N 47°36' W 002°51'0 0.0
2018-Apr-20 21:58N 47°36' W 002°51'0 0.0
2018-Apr-20 21:28N 47°36' W 002°51'0 0.0
2018-Apr-20 20:58N 47°36' W 002°51'0 0.0
2018-Apr-20 20:28N 47°36' W 002°51'0 0.0
2018-Apr-20 19:58N 47°36' W 002°51'0 0.0
2018-Apr-20 19:28N 47°36' W 002°51'0 0.0
2018-Apr-20 18:58N 47°36' W 002°51'0 0.0
2018-Apr-20 18:28N 47°36' W 002°51'0 0.0
2018-Apr-20 17:58N 47°36' W 002°51'0 0.0
2018-Apr-20 17:28N 47°36' W 002°51'0 0.0
2018-Apr-20 16:58N 47°36' W 002°51'0 0.0
2018-Apr-20 16:28N 47°36' W 002°51'0 0.0
2018-Apr-20 15:58N 47°36' W 002°51'0 0.8
2018-Apr-20 15:30N 47°36' W 002°52'1 2.7
2018-Apr-20 15:00N 47°35' W 002°53'1 2.9
2018-Apr-20 14:30N 47°34' W 002°55'2 4.5
2018-Apr-20 14:00N 47°32' W 002°56'3 5.2
2018-Apr-20 13:30N 47°29' W 002°56'2 4.0
2018-Apr-20 13:00N 47°27' W 002°57'2 3.8
2018-Apr-20 12:30N 47°25' W 002°57'1 3.0
2018-Apr-20 12:00N 47°24' W 002°58'0 0.1
2018-Apr-20 11:29N 47°24' W 002°58'0 0.0
2018-Apr-20 10:59N 47°24' W 002°58'0 0.0
2018-Apr-20 10:29N 47°24' W 002°58'0 0.0
2018-Apr-20 09:56N 47°24' W 002°58'0 0.0
2018-Apr-20 09:29N 47°24' W 002°58'1 2.8
2018-Apr-20 09:00N 47°24' W 002°60'2 3.4
2018-Apr-20 08:30N 47°23' W 003°01'2 4.7
2018-Apr-20 08:00N 47°22' W 003°05'3 5.1
2018-Apr-20 07:29N 47°21' W 003°08'1 0.1
2018-Apr-19 16:59N 47°21' W 003°09'2 4.3
2018-Apr-19 16:30N 47°20' W 003°06'3 5.0
2018-Apr-19 15:58N 47°20' W 003°02'4 5.2
2018-Apr-19 15:16N 47°19' W 002°57'2 5.5
2018-Apr-19 14:58N 47°19' W 002°55'2 3.4
2018-Apr-19 14:30N 47°19' W 002°52'1 2.2
2018-Apr-19 14:00N 47°20' W 002°51'1 1.9
2018-Apr-19 13:29N 47°20' W 002°52'0 0.0
2018-Apr-19 12:57N 47°20' W 002°52'0 0.0
2018-Apr-19 12:24N 47°20' W 002°52'0 0.0
2018-Apr-19 11:48N 47°20' W 002°52'0 0.0
2018-Apr-19 11:24N 47°20' W 002°52'0 0.0
2018-Apr-19 10:54N 47°20' W 002°52'0 0.3
2018-Apr-19 10:02N 47°20' W 002°51'0 5.2
2018-Apr-19 09:57N 47°21' W 002°51'2 5.2
2018-Apr-19 09:29N 47°21' W 002°47'2 4.1
2018-Apr-19 08:56N 47°22' W 002°44'2 4.5
2018-Apr-19 08:27N 47°23' W 002°41'3 5.1
2018-Apr-19 07:56N 47°23' W 002°37'2 3.2
2018-Apr-19 07:26N 47°23' W 002°35'1 1.3
2018-Apr-19 06:19N 47°23' W 002°33'0 0.0
2018-Apr-19 04:57N 47°23' W 002°33'0 0.0
2018-Apr-19 03:56N 47°23' W 002°33'0 0.0
2018-Apr-19 03:15N 47°23' W 002°33'0 0.0
2018-Apr-19 03:00N 47°23' W 002°33'0 0.0
2018-Apr-19 01:56N 47°23' W 002°33'0 0.0
2018-Apr-19 01:14N 47°23' W 002°33'0 0.0
2018-Apr-18 23:05N 47°23' W 002°33'0 0.0
2018-Apr-18 22:59N 47°23' W 002°33'0 0.0
2018-Apr-18 22:25N 47°23' W 002°33'0 0.0
2018-Apr-18 21:44N 47°23' W 002°33'0 0.0
2018-Apr-18 21:29N 47°23' W 002°33'0 0.0
2018-Apr-18 20:56N 47°23' W 002°33'0 0.0
2018-Apr-18 20:29N 47°23' W 002°33'0 0.0
2018-Apr-18 19:56N 47°23' W 002°33'0 0.0
2018-Apr-18 18:55N 47°23' W 002°33'0 0.0
2018-Apr-18 18:22N 47°23' W 002°33'0 0.0
2018-Apr-18 17:58N 47°23' W 002°33'0 0.0
2018-Apr-18 17:28N 47°23' W 002°33'0 0.0
2018-Apr-18 16:44N 47°23' W 002°33'0 0.0
2018-Apr-18 16:29N 47°23' W 002°33'0 0.0
2018-Apr-18 15:59N 47°23' W 002°33'0 0.0
2018-Apr-18 15:02N 47°23' W 002°33'0 0.0
2018-Apr-18 14:59N 47°23' W 002°33'0 0.0
2018-Apr-18 14:23N 47°23' W 002°33'1 1.4
2018-Apr-18 13:59N 47°23' W 002°32'0 0.0
2018-Apr-18 13:29N 47°23' W 002°32'0 0.0
2018-Apr-18 12:59N 47°23' W 002°32'0 0.0
2018-Apr-18 12:21N 47°23' W 002°32'0 1.0
2018-Apr-18 11:59N 47°24' W 002°33'2 4.1
2018-Apr-18 11:28N 47°23' W 002°35'24 6.0
2018-Apr-18 07:29N 47°02' W 002°18'0 0.3
2018-Apr-18 06:40N 47°02' W 002°18'0 0.0
2018-Apr-18 06:19N 47°02' W 002°18'0 0.0
2018-Apr-18 05:58N 47°02' W 002°18'0 0.0
2018-Apr-18 05:13N 47°02' W 002°18'0 0.0
2018-Apr-18 04:58N 47°02' W 002°18'0 0.0
2018-Apr-17 23:40N 47°02' W 002°18'0 0.0
2018-Apr-17 23:28N 47°02' W 002°18'0 0.0
2018-Apr-17 22:58N 47°02' W 002°18'0 0.0
2018-Apr-17 22:16N 47°02' W 002°18'0 0.0
2018-Apr-17 21:58N 47°02' W 002°18'0 0.0
2018-Apr-17 21:22N 47°02' W 002°18'0 0.0
2018-Apr-17 20:49N 47°02' W 002°18'0 0.0
2018-Apr-17 20:28N 47°02' W 002°18'0 0.0
2018-Apr-17 19:58N 47°02' W 002°18'0 0.0
2018-Apr-17 19:25N 47°02' W 002°18'0 0.0
2018-Apr-17 18:58N 47°02' W 002°18'0 0.0
2018-Apr-17 18:25N 47°02' W 002°18'25 2.0
2018-Apr-17 06:22N 46°41' W 001°57'1 0.4
2018-Apr-17 04:21N 46°42' W 001°56'0 0.0
2018-Apr-17 03:57N 46°42' W 001°56'0 0.0
2018-Apr-17 03:08N 46°42' W 001°56'0 0.0
2018-Apr-17 02:57N 46°42' W 001°56'0 0.0
2018-Apr-17 02:26N 46°42' W 001°56'0 0.0
2018-Apr-17 01:56N 46°42' W 001°56'55 1.2
2018-Apr-15 06:00N 47°21' W 002°52'0 0.0
2018-Apr-15 05:03N 47°21' W 002°52'0 0.0
2018-Apr-15 04:51N 47°21' W 002°52'0 0.0
2018-Apr-15 04:24N 47°21' W 002°52'0 0.0
2018-Apr-15 04:00N 47°21' W 002°52'0 0.0
2018-Apr-15 03:30N 47°21' W 002°52'0 0.0
2018-Apr-15 02:57N 47°21' W 002°52'0 0.0
2018-Apr-15 02:21N 47°21' W 002°52'0 0.0
2018-Apr-15 01:57N 47°21' W 002°52'0 0.0
2018-Apr-15 01:30N 47°21' W 002°52'0 0.0
2018-Apr-15 01:00N 47°21' W 002°52'0 0.0
2018-Apr-15 00:28N 47°21' W 002°52'0 0.0
2018-Apr-14 23:58N 47°21' W 002°52'0 0.0
2018-Apr-14 23:19N 47°21' W 002°52'0 0.0
2018-Apr-14 22:46N 47°21' W 002°52'0 0.0
2018-Apr-14 22:22N 47°21' W 002°52'0 0.0
2018-Apr-14 21:55N 47°21' W 002°52'0 0.0
2018-Apr-14 21:19N 47°21' W 002°52'0 0.0
2018-Apr-14 20:49N 47°21' W 002°52'0 0.0
2018-Apr-14 20:25N 47°21' W 002°52'0 0.0
2018-Apr-14 19:55N 47°21' W 002°52'0 0.0
2018-Apr-14 19:25N 47°21' W 002°52'0 0.0
2018-Apr-14 18:55N 47°21' W 002°52'0 0.0
2018-Apr-14 18:26N 47°21' W 002°52'0 0.0
2018-Apr-14 17:56N 47°21' W 002°52'1 1.5
2018-Apr-14 17:28N 47°21' W 002°53'3 6.1
2018-Apr-14 16:59N 47°24' W 002°54'2 5.0
2018-Apr-14 16:30N 47°26' W 002°55'3 5.9
2018-Apr-14 16:00N 47°29' W 002°57'3 6.3
2018-Apr-14 15:30N 47°32' W 002°59'3 5.3
2018-Apr-14 15:00N 47°34' W 003°01'1 0.2
2018-Apr-14 08:47N 47°35' W 003°02'0 0.0
2018-Apr-14 08:30N 47°35' W 003°02'0 0.2
2018-Apr-14 07:56N 47°35' W 003°02'  

Dump ship's entire track history